Strona główna
METAR-TAF:

METAR-TAF

Lotnisko :

Peer, Belgia

Szerokość geograficzna: 51-10N, Długość geograficzna: 005-28E, wysokość: 55 m

Aktualna obserwacja pogody

Raport powstał 27 minut temu, godzina 00:25 UTC
Wiatr 2 kt z kierunków zmiennych
Temperatura 5°C
Wilgotność 65%
Ciśnienie 1023 hPa
Widzialność 10 km lub więcej

METAR: EBBL 050025Z AUTO VRB02KT 9999 NCD 05/M01 Q1023 BLU

czas: 02:52 (00:52 UTC)


TAF: brakujący

Obserwacja i prognoza pogody dla ponad 4000 lotnisk (raport METAR i TAF).

Dostępne stacje oznaczono żółtymi i czerwonymi punktami na mapie.

Najedź kursorem aby zobaczyć nazwę stacji.

Kliknij aby zobaczyć obserwacje i prognozy pogody.

Aby zmienić mapę: kliknij na zielony przycisk z czarnym krzyżykiem, aby powiększyć; na zielony przycisk z myślnikiem, aby pomniejszyć; na zielone strzałki, aby przejść do map sąsiednich.


METAR-TAF: